createdAt,value
2023-01-06T00:02:25.211Z,8.95
2023-01-06T00:04:51.965Z,8.85
2023-01-06T00:07:18.658Z,8.91
2023-01-06T00:09:45.316Z,8.97
2023-01-06T00:12:11.974Z,9.02
2023-01-06T00:14:38.653Z,9.02
2023-01-06T00:17:06.712Z,9.04
2023-01-06T00:19:33.370Z,9.04
2023-01-06T00:22:00.109Z,9.05
2023-01-06T00:24:26.829Z,9.12
2023-01-06T00:26:53.465Z,9.14
2023-01-06T00:29:20.106Z,9.06
2023-01-06T00:31:46.848Z,9.05
2023-01-06T00:34:15.128Z,9.02
2023-01-06T00:36:41.837Z,9.00
2023-01-06T00:39:08.557Z,8.95
2023-01-06T00:41:53.699Z,8.98
2023-01-06T00:44:20.398Z,9.01
2023-01-06T00:46:47.131Z,9.05
2023-01-06T00:49:15.530Z,9.11
2023-01-06T00:51:42.557Z,9.12
2023-01-06T00:54:12.381Z,9.09
2023-01-06T00:56:40.193Z,9.09
2023-01-06T00:59:07.162Z,9.07
2023-01-06T01:01:35.188Z,9.11
2023-01-06T01:04:02.409Z,9.06
2023-01-06T01:06:30.441Z,9.03
2023-01-06T01:08:59.591Z,9.15
2023-01-06T01:11:45.337Z,9.16
2023-01-06T01:14:12.947Z,9.21
2023-01-06T01:16:39.788Z,9.12
2023-01-06T01:19:06.959Z,9.04
2023-01-06T01:21:35.056Z,9.00
2023-01-06T01:24:01.823Z,9.04
2023-01-06T01:26:28.478Z,9.03
2023-01-06T01:28:55.206Z,8.99
2023-01-06T01:31:21.945Z,9.00
2023-01-06T01:33:49.360Z,8.99
2023-01-06T01:36:18.204Z,9.11
2023-01-06T01:38:46.260Z,9.13
2023-01-06T01:41:15.709Z,9.10
2023-01-06T01:43:47.633Z,9.10
2023-01-06T01:46:18.467Z,9.12
2023-01-06T01:48:46.109Z,9.14
2023-01-06T01:51:16.407Z,9.17
2023-01-06T01:53:48.415Z,9.11
2023-01-06T01:56:18.895Z,9.13
2023-01-06T01:58:50.931Z,9.11
2023-01-06T02:01:18.048Z,9.04
2023-01-06T02:03:48.236Z,9.04
2023-01-06T02:06:20.811Z,8.98
2023-01-06T02:08:53.452Z,9.00
2023-01-06T02:11:20.500Z,8.99
2023-01-06T02:13:52.024Z,8.95
2023-01-06T02:16:23.926Z,-147.88
2023-01-06T02:18:57.993Z,-147.88
2023-01-06T02:21:38.221Z,8.84
2023-01-06T02:24:45.811Z,8.78
2023-01-06T02:27:30.957Z,8.81
2023-01-06T02:30:38.287Z,8.79
2023-01-06T02:33:16.104Z,8.79
2023-01-06T02:35:56.659Z,8.75
2023-01-06T02:38:34.731Z,8.73
2023-01-06T02:41:12.446Z,8.75
2023-01-06T02:43:47.014Z,8.79
2023-01-06T02:46:26.899Z,8.76
2023-01-06T02:49:07.203Z,8.76
2023-01-06T02:51:43.286Z,8.73
2023-01-06T02:54:20.234Z,8.78
2023-01-06T02:56:52.835Z,8.70
2023-01-06T02:59:26.150Z,8.69
2023-01-06T03:01:54.704Z,8.68
2023-01-06T03:04:26.556Z,8.56
2023-01-06T03:06:56.892Z,8.50
2023-01-06T03:09:28.686Z,8.60
2023-01-06T03:11:55.567Z,8.55
2023-01-06T03:14:26.009Z,8.60
2023-01-06T03:16:53.684Z,8.54
2023-01-06T03:19:21.026Z,8.55
2023-01-06T03:21:51.064Z,8.49
2023-01-06T03:24:17.883Z,8.38
2023-01-06T03:26:46.843Z,8.38
2023-01-06T03:29:16.706Z,8.36
2023-01-06T03:31:52.956Z,8.33
2023-01-06T03:34:26.612Z,8.24
2023-01-06T03:37:04.935Z,8.18
2023-01-06T03:39:37.486Z,8.21
2023-01-06T03:42:40.288Z,8.18
2023-01-06T03:45:19.323Z,8.31
2023-01-06T03:47:53.731Z,8.35
2023-01-06T03:50:24.613Z,8.36
2023-01-06T03:52:58.538Z,8.35
2023-01-06T03:55:29.876Z,8.35
2023-01-06T03:57:59.333Z,8.31
2023-01-06T04:00:28.941Z,8.34
2023-01-06T04:02:56.045Z,8.31
2023-01-06T04:05:24.724Z,8.24
2023-01-06T04:07:53.242Z,8.25
2023-01-06T04:10:21.974Z,8.25
2023-01-06T04:12:49.277Z,8.26
2023-01-06T04:15:18.230Z,8.28
2023-01-06T04:17:45.585Z,8.25
2023-01-06T04:20:14.885Z,8.22
2023-01-06T04:22:41.838Z,8.20
2023-01-06T04:25:10.788Z,8.16
2023-01-06T04:27:37.532Z,8.13
2023-01-06T04:30:19.491Z,8.20
2023-01-06T04:32:46.204Z,8.19
2023-01-06T04:35:12.912Z,8.21
2023-01-06T04:37:39.514Z,8.23
2023-01-06T04:40:07.763Z,8.28
2023-01-06T04:42:54.322Z,8.24
2023-01-06T04:45:21.346Z,8.19
2023-01-06T04:47:48.133Z,8.19
2023-01-06T04:50:15.086Z,8.22
2023-01-06T04:52:41.800Z,8.23
2023-01-06T04:55:09.525Z,8.15
2023-01-06T04:57:37.605Z,8.10
2023-01-06T05:00:05.554Z,8.12
2023-01-06T05:02:33.125Z,8.07
2023-01-06T05:04:59.903Z,7.99
2023-01-06T05:07:26.623Z,7.91
2023-01-06T05:09:53.301Z,7.94
2023-01-06T05:12:20.076Z,7.92
2023-01-06T05:14:48.093Z,7.93
2023-01-06T05:17:14.819Z,7.96
2023-01-06T05:19:43.060Z,7.95
2023-01-06T05:22:10.184Z,7.92
2023-01-06T05:24:36.974Z,7.92
2023-01-06T05:27:03.746Z,7.90
2023-01-06T05:29:30.568Z,7.89
2023-01-06T05:31:58.963Z,7.94
2023-01-06T05:34:26.002Z,7.96
2023-01-06T05:36:52.729Z,7.93
2023-01-06T05:39:19.517Z,7.95
2023-01-06T05:41:46.269Z,7.88
2023-01-06T05:44:12.946Z,7.89
2023-01-06T05:46:39.686Z,7.84
2023-01-06T05:49:09.198Z,7.85
2023-01-06T05:51:35.889Z,7.85
2023-01-06T05:54:02.825Z,7.78
2023-01-06T05:56:29.738Z,7.78
2023-01-06T05:58:56.463Z,7.76
2023-01-06T06:01:25.080Z,7.77
2023-01-06T06:03:52.764Z,7.79
2023-01-06T06:06:22.188Z,7.79
2023-01-06T06:08:49.051Z,7.76
2023-01-06T06:11:17.995Z,7.83
2023-01-06T06:13:48.798Z,7.83
2023-01-06T06:16:17.143Z,7.83
2023-01-06T06:18:44.072Z,7.87
2023-01-06T06:21:14.634Z,7.90
2023-01-06T06:23:43.139Z,7.87
2023-01-06T06:26:14.611Z,7.82
2023-01-06T06:28:42.338Z,7.79
2023-01-06T06:31:11.130Z,7.79
2023-01-06T06:33:38.112Z,7.74
2023-01-06T06:36:06.612Z,7.79
2023-01-06T06:38:33.357Z,7.77
2023-01-06T06:41:01.412Z,7.77
2023-01-06T06:43:29.240Z,7.85
2023-01-06T06:45:56.079Z,7.85
2023-01-06T06:48:22.789Z,7.79
2023-01-06T06:50:56.812Z,7.80
2023-01-06T06:53:23.574Z,7.73
2023-01-06T06:55:50.345Z,7.71
2023-01-06T06:58:18.459Z,7.76
2023-01-06T07:00:45.256Z,7.78
2023-01-06T07:03:12.042Z,7.79
2023-01-06T07:05:39.135Z,7.77
2023-01-06T07:08:06.546Z,7.77
2023-01-06T07:10:33.803Z,7.81
2023-01-06T07:13:00.476Z,7.74
2023-01-06T07:15:28.660Z,7.79
2023-01-06T07:17:55.482Z,7.83
2023-01-06T07:20:22.208Z,7.77
2023-01-06T07:22:48.853Z,7.77
2023-01-06T07:25:15.575Z,7.75
2023-01-06T07:27:42.191Z,7.75
2023-01-06T07:30:09.802Z,7.74
2023-01-06T07:32:37.943Z,7.77
2023-01-06T07:35:05.283Z,7.78
2023-01-06T07:37:31.992Z,7.75
2023-01-06T07:39:58.743Z,7.76
2023-01-06T07:42:25.520Z,7.77
2023-01-06T07:44:52.211Z,7.72
2023-01-06T07:47:18.848Z,7.77
2023-01-06T07:49:47.004Z,7.74
2023-01-06T07:52:13.766Z,7.77
2023-01-06T07:54:41.153Z,7.80
2023-01-06T07:57:07.940Z,7.78
2023-01-06T07:59:34.939Z,7.75
2023-01-06T08:02:01.781Z,-147.88
2023-01-06T08:04:28.609Z,-147.88
2023-01-06T08:06:56.730Z,-147.88
2023-01-06T08:09:23.486Z,7.75
2023-01-06T08:11:50.154Z,7.78
2023-01-06T08:14:16.932Z,7.79
2023-01-06T08:16:43.802Z,7.78
2023-01-06T08:19:11.840Z,7.78
2023-01-06T08:21:38.592Z,7.80
2023-01-06T08:24:07.761Z,7.85
2023-01-06T08:26:34.442Z,7.85
2023-01-06T08:29:01.469Z,7.85
2023-01-06T08:31:28.225Z,7.81
2023-01-06T08:33:54.948Z,7.86
2023-01-06T08:36:23.700Z,8.38
2023-01-06T08:38:50.976Z,8.39
2023-01-06T08:41:19.497Z,8.23
2023-01-06T08:43:47.131Z,8.18
2023-01-06T08:46:16.508Z,8.07
2023-01-06T08:48:43.682Z,8.05
2023-01-06T08:51:13.040Z,8.01
2023-01-06T08:53:40.020Z,7.96
2023-01-06T08:56:12.780Z,7.96
2023-01-06T08:58:41.964Z,7.93
2023-01-06T09:01:16.436Z,7.90
2023-01-06T09:03:43.460Z,7.92
2023-01-06T09:06:10.349Z,7.94
2023-01-06T09:08:37.941Z,7.96
2023-01-06T09:11:05.506Z,7.99
2023-01-06T09:13:32.271Z,8.08
2023-01-06T09:16:00.475Z,8.52
2023-01-06T09:18:27.285Z,8.65
2023-01-06T09:20:54.004Z,8.48
2023-01-06T09:23:22.090Z,8.38
2023-01-06T09:25:48.864Z,8.29
2023-01-06T09:28:15.581Z,8.28
2023-01-06T09:30:43.197Z,8.24
2023-01-06T09:33:11.280Z,8.18
2023-01-06T09:35:38.045Z,8.21
2023-01-06T09:38:04.770Z,8.19
2023-01-06T09:40:43.649Z,8.17
2023-01-06T09:43:20.109Z,8.24
2023-01-06T09:45:52.931Z,8.24
2023-01-06T09:48:23.955Z,8.25
2023-01-06T09:50:55.551Z,8.24
2023-01-06T09:53:26.064Z,8.29
2023-01-06T09:55:57.947Z,8.43
2023-01-06T09:58:28.929Z,8.43
2023-01-06T10:00:58.604Z,8.40
2023-01-06T10:03:27.757Z,8.42
2023-01-06T10:06:05.657Z,8.41
2023-01-06T10:08:40.049Z,8.44
2023-01-06T10:11:14.853Z,8.48
2023-01-06T10:13:53.835Z,8.53
2023-01-06T10:16:32.322Z,8.53
2023-01-06T10:19:11.270Z,8.59
2023-01-06T10:21:44.700Z,8.66
2023-01-06T10:24:25.171Z,8.66
2023-01-06T10:26:57.395Z,8.74
2023-01-06T10:29:30.392Z,8.73
2023-01-06T10:32:00.801Z,8.72
2023-01-06T10:34:29.889Z,8.82
2023-01-06T10:37:03.047Z,9.10
2023-01-06T10:39:31.749Z,9.20
2023-01-06T10:42:24.762Z,9.10
2023-01-06T10:44:51.532Z,9.17
2023-01-06T10:47:24.148Z,8.96
2023-01-06T10:49:52.526Z,9.02
2023-01-06T10:52:21.078Z,9.07
2023-01-06T10:54:49.428Z,9.25
2023-01-06T10:57:22.149Z,9.45
2023-01-06T11:00:12.708Z,9.29
2023-01-06T11:02:43.097Z,9.21
2023-01-06T11:05:15.999Z,9.20
2023-01-06T11:07:49.249Z,9.14
2023-01-06T11:10:26.208Z,9.13
2023-01-06T11:12:53.268Z,9.12
2023-01-06T11:15:22.455Z,9.14
2023-01-06T11:17:49.268Z,9.22
2023-01-06T11:20:31.081Z,9.33
2023-01-06T11:23:13.789Z,9.30
2023-01-06T11:25:40.573Z,9.36
2023-01-06T11:28:18.204Z,9.31
2023-01-06T11:30:50.376Z,-147.88
2023-01-06T11:33:18.867Z,9.30
2023-01-06T11:35:47.705Z,9.46
2023-01-06T11:38:16.799Z,9.51
2023-01-06T11:40:45.802Z,9.56
2023-01-06T11:43:17.484Z,9.63
2023-01-06T11:45:50.053Z,9.71
2023-01-06T11:48:20.016Z,9.69
2023-01-06T11:50:57.318Z,9.67
2023-01-06T11:53:24.707Z,9.71
2023-01-06T11:56:02.227Z,9.65
2023-01-06T11:58:39.954Z,9.57
2023-01-06T12:01:11.911Z,9.52
2023-01-06T12:03:41.874Z,9.52
2023-01-06T12:06:21.967Z,9.54
2023-01-06T12:08:55.956Z,9.47
2023-01-06T12:11:29.986Z,9.50
2023-01-06T12:14:13.082Z,9.47
2023-01-06T12:17:00.483Z,9.48
2023-01-06T12:19:39.994Z,9.48
2023-01-06T12:22:19.504Z,9.53
2023-01-06T12:24:48.998Z,9.63
2023-01-06T12:27:24.138Z,9.63
2023-01-06T12:29:52.414Z,9.54
2023-01-06T12:32:27.655Z,9.60
2023-01-06T12:35:00.224Z,9.62
2023-01-06T12:37:32.961Z,9.66
2023-01-06T12:40:04.866Z,9.64
2023-01-06T12:42:37.382Z,9.63
2023-01-06T12:45:12.724Z,9.56
2023-01-06T12:47:44.837Z,9.51
2023-01-06T12:50:20.790Z,9.47
2023-01-06T12:52:52.296Z,9.38
2023-01-06T12:55:27.850Z,9.43
2023-01-06T12:57:59.384Z,9.43
2023-01-06T13:00:42.720Z,9.42
2023-01-06T13:03:28.081Z,9.50
2023-01-06T13:06:11.978Z,9.52
2023-01-06T13:09:11.049Z,9.44
2023-01-06T13:11:53.988Z,9.47
2023-01-06T13:14:24.944Z,9.43
2023-01-06T13:16:56.365Z,9.48
2023-01-06T13:19:36.776Z,9.46
2023-01-06T13:22:10.030Z,9.45
2023-01-06T13:25:00.837Z,9.42
2023-01-06T13:27:45.517Z,9.39
2023-01-06T13:30:33.551Z,9.40
2023-01-06T13:33:32.773Z,9.48
2023-01-06T13:36:13.808Z,9.49
2023-01-06T13:38:57.612Z,9.50
2023-01-06T13:41:29.269Z,9.50
2023-01-06T13:43:58.409Z,9.56
2023-01-06T13:46:27.275Z,9.53
2023-01-06T13:48:57.708Z,9.53
2023-01-06T13:51:28.639Z,9.55
2023-01-06T13:53:56.519Z,9.56
2023-01-06T13:56:29.969Z,9.62
2023-01-06T13:59:21.928Z,9.64
2023-01-06T14:01:49.493Z,9.61
2023-01-06T14:04:46.312Z,9.55
2023-01-06T14:07:14.902Z,9.58
2023-01-06T14:09:48.694Z,9.73
2023-01-06T14:12:21.522Z,9.67
2023-01-06T14:15:00.975Z,9.54
2023-01-06T14:17:39.376Z,9.52
2023-01-06T14:20:17.907Z,9.56
2023-01-06T14:22:57.770Z,9.51
2023-01-06T14:25:25.216Z,9.49
2023-01-06T14:28:24.802Z,9.51
2023-01-06T14:31:12.135Z,9.50
2023-01-06T14:33:39.963Z,9.48
2023-01-06T14:36:12.570Z,9.44
2023-01-06T14:38:44.535Z,9.44
2023-01-06T14:41:22.080Z,9.44
2023-01-06T14:43:55.082Z,9.44
2023-01-06T14:46:25.984Z,9.32
2023-01-06T14:48:59.105Z,9.27
2023-01-06T14:51:27.015Z,9.36
2023-01-06T14:54:04.487Z,9.34
2023-01-06T14:56:32.679Z,9.27
2023-01-06T14:59:06.320Z,9.25
2023-01-06T15:01:38.745Z,9.25
2023-01-06T15:04:07.395Z,9.22
2023-01-06T15:06:34.077Z,9.21
2023-01-06T15:09:20.264Z,9.17
2023-01-06T15:11:49.907Z,9.16
2023-01-06T15:14:36.006Z,9.17
2023-01-06T15:17:05.277Z,9.21
2023-01-06T15:19:33.090Z,9.19
2023-01-06T15:22:01.223Z,9.20
2023-01-06T15:24:35.456Z,9.15
2023-01-06T15:27:07.569Z,9.14
2023-01-06T15:29:36.193Z,9.18
2023-01-06T15:32:04.695Z,9.13
2023-01-06T15:34:40.477Z,9.09
2023-01-06T15:37:15.037Z,9.04
2023-01-06T15:39:42.936Z,9.01
2023-01-06T15:42:13.061Z,9.00
2023-01-06T15:44:41.531Z,8.97
2023-01-06T15:47:20.255Z,8.93
2023-01-06T15:49:53.477Z,8.89
2023-01-06T15:52:25.566Z,8.89
2023-01-06T15:54:54.469Z,8.94
2023-01-06T15:57:22.047Z,8.89
2023-01-06T15:59:58.463Z,8.96
2023-01-06T16:02:28.858Z,9.11
2023-01-06T16:04:55.880Z,9.06
2023-01-06T16:07:34.727Z,9.01
2023-01-06T16:10:01.947Z,8.99
2023-01-06T16:12:28.718Z,8.95
2023-01-06T16:14:56.963Z,8.89
2023-01-06T16:17:30.084Z,8.96
2023-01-06T16:20:01.551Z,8.95
2023-01-06T16:22:33.695Z,9.01
2023-01-06T16:25:02.527Z,8.92
2023-01-06T16:27:29.418Z,8.92
2023-01-06T16:30:21.234Z,8.94
2023-01-06T16:32:48.755Z,8.99
2023-01-06T16:35:17.242Z,8.89
2023-01-06T16:37:45.025Z,8.86
2023-01-06T16:40:13.184Z,8.84
2023-01-06T16:42:40.467Z,8.78
2023-01-06T16:45:17.779Z,8.82
2023-01-06T16:47:46.450Z,8.78
2023-01-06T16:50:17.425Z,8.75
2023-01-06T16:52:46.746Z,8.76
2023-01-06T16:55:15.400Z,9.12
2023-01-06T16:57:42.355Z,9.14
2023-01-06T17:00:14.970Z,8.94
2023-01-06T17:02:42.348Z,8.82
2023-01-06T17:05:24.139Z,8.70
2023-01-06T17:07:52.973Z,8.65
2023-01-06T17:10:23.340Z,8.63
2023-01-06T17:13:12.929Z,8.64
2023-01-06T17:15:40.174Z,8.63
2023-01-06T17:18:21.912Z,8.65
2023-01-06T17:20:51.304Z,8.65
2023-01-06T17:23:18.015Z,8.64
2023-01-06T17:25:45.033Z,8.61
2023-01-06T17:28:18.994Z,8.59
2023-01-06T17:30:45.766Z,8.66
2023-01-06T17:33:14.338Z,8.64
2023-01-06T17:35:43.120Z,8.58
2023-01-06T17:38:17.012Z,8.63
2023-01-06T17:40:43.741Z,8.69
2023-01-06T17:43:22.041Z,8.63
2023-01-06T17:45:48.809Z,8.61
2023-01-06T17:48:15.984Z,8.62
2023-01-06T17:50:46.797Z,8.56
2023-01-06T17:53:35.337Z,8.54
2023-01-06T17:56:03.934Z,8.52
2023-01-06T17:58:32.151Z,8.50
2023-01-06T18:01:00.465Z,8.50
2023-01-06T18:03:30.953Z,8.47
2023-01-06T18:06:17.529Z,8.53
2023-01-06T18:08:46.809Z,8.87
2023-01-06T18:11:34.327Z,8.83
2023-01-06T18:14:15.586Z,8.70
2023-01-06T18:16:45.233Z,8.63
2023-01-06T18:19:31.609Z,8.56
2023-01-06T18:21:58.906Z,8.59
2023-01-06T18:24:32.183Z,8.60
2023-01-06T18:27:01.053Z,8.53
2023-01-06T18:29:32.459Z,8.51
2023-01-06T18:32:22.161Z,8.50
2023-01-06T18:34:50.183Z,8.54
2023-01-06T18:37:17.705Z,8.53
2023-01-06T18:39:48.304Z,8.48
2023-01-06T18:42:26.486Z,8.46
2023-01-06T18:45:01.667Z,8.45
2023-01-06T18:47:31.361Z,-147.88
2023-01-06T18:50:19.082Z,8.45
2023-01-06T18:52:46.553Z,8.45
2023-01-06T18:55:20.091Z,8.45
2023-01-06T18:57:54.686Z,8.45
2023-01-06T19:00:36.188Z,8.48
2023-01-06T19:03:29.052Z,8.44
2023-01-06T19:06:17.576Z,8.43
2023-01-06T19:08:46.624Z,8.43
2023-01-06T19:11:17.602Z,8.66
2023-01-06T19:13:46.131Z,8.95
2023-01-06T19:16:27.184Z,8.80
2023-01-06T19:18:56.250Z,8.66
2023-01-06T19:21:23.780Z,8.61
2023-01-06T19:23:50.624Z,8.59
2023-01-06T19:26:31.567Z,8.59
2023-01-06T19:29:01.861Z,8.56
2023-01-06T19:31:30.604Z,8.56
2023-01-06T19:33:59.568Z,8.51
2023-01-06T19:36:41.405Z,8.47
2023-01-06T19:39:30.666Z,8.47
2023-01-06T19:42:22.784Z,8.50
2023-01-06T19:44:53.905Z,8.58
2023-01-06T19:47:24.380Z,8.58
2023-01-06T19:49:55.780Z,8.58
2023-01-06T19:52:33.391Z,8.55
2023-01-06T19:55:16.297Z,8.53
2023-01-06T19:57:48.670Z,8.48
2023-01-06T20:00:27.710Z,8.49
2023-01-06T20:02:57.625Z,8.48
2023-01-06T20:05:25.261Z,8.48
2023-01-06T20:07:52.316Z,8.44
2023-01-06T20:10:20.517Z,8.41
2023-01-06T20:12:49.002Z,8.41
2023-01-06T20:15:16.368Z,8.43
2023-01-06T20:17:43.086Z,8.43
2023-01-06T20:20:10.960Z,8.36
2023-01-06T20:22:37.707Z,8.34
2023-01-06T20:25:04.960Z,8.36
2023-01-06T20:27:31.710Z,8.31
2023-01-06T20:29:59.793Z,8.26
2023-01-06T20:32:26.527Z,8.23
2023-01-06T20:34:53.340Z,8.21
2023-01-06T20:37:20.267Z,8.18
2023-01-06T20:39:47.016Z,8.84
2023-01-06T20:42:13.758Z,8.71
2023-01-06T20:44:43.481Z,8.51
2023-01-06T20:47:11.507Z,8.35
2023-01-06T20:49:39.050Z,8.29
2023-01-06T20:52:05.764Z,8.22
2023-01-06T20:54:32.438Z,8.16
2023-01-06T20:56:59.056Z,8.17
2023-01-06T20:59:25.914Z,8.17
2023-01-06T21:01:52.769Z,8.17
2023-01-06T21:04:21.215Z,8.15
2023-01-06T21:06:48.259Z,8.12
2023-01-06T21:09:14.968Z,8.22
2023-01-06T21:11:42.010Z,8.19
2023-01-06T21:14:08.695Z,8.17
2023-01-06T21:16:36.069Z,8.18
2023-01-06T21:19:02.903Z,8.17
2023-01-06T21:21:30.993Z,8.17
2023-01-06T21:24:00.300Z,8.18
2023-01-06T21:26:27.218Z,8.15
2023-01-06T21:28:54.035Z,8.47
2023-01-06T21:31:22.373Z,9.01
2023-01-06T21:33:49.196Z,8.78
2023-01-06T21:36:15.940Z,8.56
2023-01-06T21:38:44.094Z,8.34
2023-01-06T21:41:29.303Z,8.15
2023-01-06T21:43:56.015Z,8.02
2023-01-06T21:46:22.972Z,8.03
2023-01-06T21:48:49.737Z,7.95
2023-01-06T21:51:16.714Z,7.85
2023-01-06T21:53:45.696Z,7.78
2023-01-06T21:56:13.522Z,7.74
2023-01-06T21:58:40.308Z,-147.88
2023-01-06T22:01:07.322Z,-147.88
2023-01-06T22:03:34.463Z,-147.88
2023-01-06T22:06:03.430Z,7.64
2023-01-06T22:08:32.572Z,7.65
2023-01-06T22:11:01.502Z,7.73
2023-01-06T22:13:29.048Z,7.75
2023-01-06T22:15:55.762Z,7.70
2023-01-06T22:18:22.717Z,7.63
2023-01-06T22:20:49.993Z,7.60
2023-01-06T22:23:23.202Z,7.62
2023-01-06T22:25:51.398Z,7.61
2023-01-06T22:28:19.599Z,7.62
2023-01-06T22:30:46.360Z,7.62
2023-01-06T22:33:15.438Z,7.58
2023-01-06T22:35:42.102Z,7.63
2023-01-06T22:38:09.230Z,7.62
2023-01-06T22:40:36.077Z,7.70
2023-01-06T22:43:04.069Z,7.76
2023-01-06T22:45:33.934Z,8.64
2023-01-06T22:48:00.759Z,8.38
2023-01-06T22:50:27.580Z,8.19
2023-01-06T22:52:55.537Z,8.08
2023-01-06T22:55:22.587Z,8.03
2023-01-06T22:57:49.310Z,7.91
2023-01-06T23:00:18.401Z,7.87
2023-01-06T23:02:46.685Z,7.84
2023-01-06T23:05:13.604Z,7.83
2023-01-06T23:07:41.973Z,7.76
2023-01-06T23:10:11.105Z,7.72
2023-01-06T23:12:40.193Z,7.75
2023-01-06T23:15:08.455Z,7.79
2023-01-06T23:17:36.836Z,7.80
2023-01-06T23:20:05.941Z,7.88
2023-01-06T23:22:32.857Z,7.86
2023-01-06T23:24:59.535Z,7.90
2023-01-06T23:27:26.237Z,7.86
2023-01-06T23:29:52.924Z,7.80
2023-01-06T23:32:20.290Z,-147.88
2023-01-06T23:34:47.652Z,-147.88
2023-01-06T23:37:15.807Z,-147.88
2023-01-06T23:39:42.594Z,-147.88
2023-01-06T23:42:09.308Z,-147.88
2023-01-06T23:44:35.977Z,-147.88
2023-01-06T23:47:02.717Z,-147.88
2023-01-06T23:49:29.506Z,-147.88
2023-01-06T23:51:56.179Z,-147.88
2023-01-06T23:54:24.495Z,-147.88
2023-01-06T23:56:51.319Z,-147.88
2023-01-06T23:59:18.224Z,-147.88
